createdAt,value
2018-02-10T00:01:30.365Z,924.46
2018-02-10T00:03:02.185Z,924.46
2018-02-10T00:04:34.005Z,924.55
2018-02-10T00:06:05.827Z,924.57
2018-02-10T00:07:37.643Z,924.59
2018-02-10T00:09:09.563Z,924.65
2018-02-10T00:10:41.282Z,924.70
2018-02-10T00:12:13.101Z,924.73
2018-02-10T00:13:44.921Z,924.76
2018-02-10T00:15:16.841Z,924.74
2018-02-10T00:16:48.560Z,924.85
2018-02-10T00:18:20.379Z,924.87
2018-02-10T00:19:52.199Z,924.90
2018-02-10T00:21:24.020Z,924.90
2018-02-10T00:22:55.838Z,924.92
2018-02-10T00:24:27.660Z,924.92
2018-02-10T00:25:59.477Z,924.93
2018-02-10T00:27:31.397Z,924.94
2018-02-10T00:29:03.118Z,924.98
2018-02-10T00:30:34.936Z,925.03
2018-02-10T00:32:06.756Z,925.05
2018-02-10T00:33:38.576Z,925.06
2018-02-10T00:35:10.396Z,925.08
2018-02-10T00:36:42.216Z,925.05
2018-02-10T00:38:14.035Z,925.04
2018-02-10T00:39:45.856Z,925.02
2018-02-10T00:41:17.674Z,925.03
2018-02-10T00:42:49.494Z,925.09
2018-02-10T00:44:21.313Z,925.06
2018-02-10T00:45:53.383Z,925.02
2018-02-10T00:47:24.952Z,925.06
2018-02-10T00:48:56.771Z,925.07
2018-02-10T00:50:28.591Z,925.09
2018-02-10T00:52:00.409Z,925.11
2018-02-10T00:53:32.228Z,925.10
2018-02-10T00:55:04.054Z,925.08
2018-02-10T00:56:35.867Z,925.18
2018-02-10T00:58:07.687Z,925.13
2018-02-10T00:59:39.505Z,925.19
2018-02-10T01:01:11.325Z,925.20
2018-02-10T01:02:43.144Z,925.27
2018-02-10T01:04:15.063Z,925.27
2018-02-10T01:05:46.782Z,925.29
2018-02-10T01:07:18.603Z,925.30
2018-02-10T01:08:50.421Z,925.32
2018-02-10T01:10:22.240Z,925.34
2018-02-10T01:11:54.060Z,925.35
2018-02-10T01:13:25.879Z,925.38
2018-02-10T01:14:57.699Z,925.40
2018-02-10T01:16:29.518Z,925.42
2018-02-10T01:18:01.338Z,925.43
2018-02-10T01:19:33.157Z,925.42
2018-02-10T01:21:04.976Z,925.42
2018-02-10T01:22:36.896Z,925.42
2018-02-10T01:24:08.614Z,925.41
2018-02-10T01:25:40.434Z,925.43
2018-02-10T01:27:12.255Z,925.39
2018-02-10T01:28:44.073Z,925.41
2018-02-10T01:30:15.892Z,925.37
2018-02-10T01:31:47.712Z,925.40
2018-02-10T01:33:19.540Z,925.33
2018-02-10T01:34:51.351Z,925.38
2018-02-10T01:36:23.227Z,925.41
2018-02-10T01:37:55.470Z,925.35
2018-02-10T01:39:26.808Z,925.33
2018-02-10T01:40:58.728Z,925.34
2018-02-10T01:42:30.448Z,925.34
2018-02-10T01:44:02.269Z,925.36
2018-02-10T01:45:34.086Z,925.35
2018-02-10T01:47:06.006Z,925.37
2018-02-10T01:48:37.725Z,925.35
2018-02-10T01:50:09.547Z,925.36
2018-02-10T01:51:41.371Z,925.36
2018-02-10T01:53:13.183Z,925.39
2018-02-10T01:54:45.003Z,925.39
2018-02-10T01:56:16.821Z,925.37
2018-02-10T01:57:48.642Z,925.37
2018-02-10T01:59:20.561Z,925.39
2018-02-10T02:00:52.281Z,925.38
2018-02-10T02:02:24.100Z,925.37
2018-02-10T02:03:55.919Z,925.37
2018-02-10T02:05:27.737Z,925.42
2018-02-10T02:06:59.557Z,925.44
2018-02-10T02:08:31.382Z,925.42
2018-02-10T02:10:03.195Z,925.38
2018-02-10T02:11:35.019Z,925.32
2018-02-10T02:13:06.833Z,925.28
2018-02-10T02:14:38.652Z,925.21
2018-02-10T02:16:10.472Z,925.18
2018-02-10T02:17:42.490Z,925.14
2018-02-10T02:19:14.109Z,925.12
2018-02-10T02:20:45.927Z,925.13
2018-02-10T02:22:17.746Z,925.12
2018-02-10T02:23:49.565Z,925.15
2018-02-10T02:25:21.392Z,925.17
2018-02-10T02:26:53.203Z,925.18
2018-02-10T02:28:25.021Z,925.16
2018-02-10T02:29:56.840Z,925.11
2018-02-10T02:31:28.659Z,925.11
2018-02-10T02:33:00.478Z,925.09
2018-02-10T02:34:32.296Z,925.08
2018-02-10T02:36:04.217Z,925.04
2018-02-10T02:37:35.935Z,924.99
2018-02-10T02:39:07.752Z,924.92
2018-02-10T02:40:39.571Z,924.90
2018-02-10T02:42:11.390Z,924.84
2018-02-10T02:43:43.210Z,924.81
2018-02-10T02:45:15.027Z,924.79
2018-02-10T02:46:46.846Z,924.75
2018-02-10T02:48:18.770Z,924.79
2018-02-10T02:49:50.490Z,924.77
2018-02-10T02:51:22.303Z,924.75
2018-02-10T02:52:54.122Z,924.75
2018-02-10T02:54:26.293Z,924.72
2018-02-10T02:55:57.758Z,924.70
2018-02-10T02:57:29.578Z,924.74
2018-02-10T02:59:01.397Z,924.70
2018-02-10T03:00:33.216Z,924.69
2018-02-10T03:02:05.034Z,924.68
2018-02-10T03:03:36.852Z,924.70
2018-02-10T03:05:08.676Z,924.71
2018-02-10T03:06:40.490Z,924.63
2018-02-10T03:08:12.308Z,924.63
2018-02-10T03:09:44.127Z,924.52
2018-02-10T03:11:15.946Z,924.45
2018-02-10T03:12:47.864Z,924.46
2018-02-10T03:14:19.583Z,924.41
2018-02-10T03:15:51.403Z,924.39
2018-02-10T03:17:23.220Z,924.36
2018-02-10T03:18:55.139Z,924.35
2018-02-10T03:20:26.857Z,924.34
2018-02-10T03:21:58.676Z,924.34
2018-02-10T03:23:30.495Z,924.29
2018-02-10T03:25:02.313Z,924.31
2018-02-10T03:26:34.132Z,924.30
2018-02-10T03:28:05.950Z,924.29
2018-02-10T03:29:37.769Z,924.22
2018-02-10T03:31:09.689Z,924.25
2018-02-10T03:32:41.405Z,924.19
2018-02-10T03:34:13.225Z,924.11
2018-02-10T03:35:45.043Z,924.13
2018-02-10T03:37:16.861Z,924.12
2018-02-10T03:38:48.680Z,924.08
2018-02-10T03:40:20.502Z,924.08
2018-02-10T03:41:52.316Z,924.05
2018-02-10T03:43:24.134Z,924.04
2018-02-10T03:44:55.953Z,924.00
2018-02-10T03:46:27.771Z,924.01
2018-02-10T03:47:59.589Z,923.97
2018-02-10T03:49:31.508Z,923.97
2018-02-10T03:51:03.226Z,923.95
2018-02-10T03:52:35.045Z,923.86
2018-02-10T03:54:06.863Z,923.82
2018-02-10T03:55:38.781Z,923.80
2018-02-10T03:57:10.499Z,923.76
2018-02-10T03:58:42.317Z,923.74
2018-02-10T04:00:14.136Z,923.71
2018-02-10T04:01:45.970Z,923.71
2018-02-10T04:03:17.772Z,923.75
2018-02-10T04:04:49.590Z,923.71
2018-02-10T04:06:21.411Z,923.76
2018-02-10T04:07:53.327Z,923.77
2018-02-10T04:09:25.045Z,923.76
2018-02-10T04:10:56.863Z,923.80
2018-02-10T04:12:28.682Z,923.70
2018-02-10T04:14:00.500Z,923.71
2018-02-10T04:15:32.318Z,923.69
2018-02-10T04:17:04.136Z,923.66
2018-02-10T04:18:35.955Z,923.67
2018-02-10T04:20:07.773Z,923.60
2018-02-10T04:21:39.591Z,923.57
2018-02-10T04:23:11.409Z,923.62
2018-02-10T04:24:43.227Z,923.62
2018-02-10T04:26:15.245Z,923.57
2018-02-10T04:27:46.862Z,923.57
2018-02-10T04:29:18.681Z,923.58
2018-02-10T04:30:50.498Z,923.60
2018-02-10T04:32:22.317Z,923.62
2018-02-10T04:33:54.134Z,923.59
2018-02-10T04:35:25.952Z,923.55
2018-02-10T04:36:57.769Z,923.55
2018-02-10T04:38:29.588Z,923.51
2018-02-10T04:40:01.409Z,923.47
2018-02-10T04:41:33.224Z,923.47
2018-02-10T04:43:05.048Z,923.46
2018-02-10T04:44:36.959Z,923.45
2018-02-10T04:46:08.679Z,923.45
2018-02-10T04:47:40.495Z,923.42
2018-02-10T04:49:12.312Z,923.41
2018-02-10T04:50:44.232Z,923.43
2018-02-10T04:52:15.949Z,923.43
2018-02-10T04:53:47.766Z,923.44
2018-02-10T04:55:19.583Z,923.43
2018-02-10T04:56:51.402Z,923.44
2018-02-10T04:58:23.220Z,923.39
2018-02-10T04:59:55.037Z,923.36
2018-02-10T05:01:26.856Z,923.38
2018-02-10T05:02:58.823Z,923.35
2018-02-10T05:04:30.490Z,923.31
2018-02-10T05:06:02.308Z,923.24
2018-02-10T05:07:34.126Z,923.29
2018-02-10T05:09:06.094Z,923.25
2018-02-10T05:10:37.761Z,923.29
2018-02-10T05:12:09.580Z,923.28
2018-02-10T05:13:41.397Z,923.24
2018-02-10T05:15:13.215Z,923.27
2018-02-10T05:16:45.033Z,923.23
2018-02-10T05:18:16.851Z,923.22
2018-02-10T05:19:48.669Z,923.19
2018-02-10T05:21:20.688Z,923.26
2018-02-10T05:22:52.304Z,923.22
2018-02-10T05:24:24.122Z,923.17
2018-02-10T05:25:55.946Z,923.23
2018-02-10T05:27:27.757Z,923.22
2018-02-10T05:28:59.575Z,923.20
2018-02-10T05:30:31.393Z,923.20
2018-02-10T05:32:03.215Z,923.17
2018-02-10T05:33:35.029Z,923.18
2018-02-10T05:35:06.846Z,923.16
2018-02-10T05:36:38.665Z,923.18
2018-02-10T05:38:10.482Z,923.19
2018-02-10T05:39:42.400Z,923.20
2018-02-10T05:41:14.118Z,923.20
2018-02-10T05:42:45.935Z,923.21
2018-02-10T05:44:17.753Z,923.21
2018-02-10T05:45:49.570Z,923.18
2018-02-10T05:47:21.389Z,923.30
2018-02-10T05:48:53.207Z,923.27
2018-02-10T05:50:25.024Z,923.36
2018-02-10T05:51:56.942Z,923.38
2018-02-10T05:53:28.660Z,923.42
2018-02-10T05:55:00.477Z,923.45
2018-02-10T05:56:32.295Z,923.47
2018-02-10T05:58:04.213Z,923.51
2018-02-10T05:59:35.930Z,923.51
2018-02-10T06:01:07.748Z,923.51
2018-02-10T06:02:39.565Z,923.55
2018-02-10T06:04:11.383Z,923.58
2018-02-10T06:05:43.200Z,923.56
2018-02-10T06:07:15.019Z,923.58
2018-02-10T06:08:46.835Z,923.58
2018-02-10T06:10:18.653Z,923.64
2018-02-10T06:11:50.471Z,923.68
2018-02-10T06:13:22.288Z,923.73
2018-02-10T06:14:54.106Z,923.71
2018-02-10T06:16:26.024Z,923.64
2018-02-10T06:17:57.743Z,923.63
2018-02-10T06:19:29.559Z,923.57
2018-02-10T06:21:01.377Z,923.59
2018-02-10T06:22:33.295Z,923.59
2018-02-10T06:24:05.012Z,923.61
2018-02-10T06:25:36.832Z,923.63
2018-02-10T06:27:08.649Z,923.66
2018-02-10T06:28:40.717Z,923.68
2018-02-10T06:30:12.283Z,923.64
2018-02-10T06:31:44.101Z,923.67
2018-02-10T06:33:15.918Z,923.70
2018-02-10T06:34:47.836Z,923.70
2018-02-10T06:36:19.554Z,923.71
2018-02-10T06:37:51.371Z,923.69
2018-02-10T06:39:23.189Z,923.69
2018-02-10T06:40:55.007Z,923.71
2018-02-10T06:42:26.824Z,923.73
2018-02-10T06:43:58.641Z,923.73
2018-02-10T06:45:30.459Z,923.74
2018-02-10T06:47:02.277Z,923.78
2018-02-10T06:48:34.094Z,923.80
2018-02-10T06:50:05.914Z,923.79
2018-02-10T06:51:37.729Z,923.79
2018-02-10T06:53:09.697Z,923.82
2018-02-10T06:54:41.365Z,923.80
2018-02-10T06:56:13.182Z,923.81
2018-02-10T06:57:45.001Z,923.84
2018-02-10T06:59:16.918Z,923.86
2018-02-10T07:00:48.635Z,923.80
2018-02-10T07:02:20.453Z,923.89
2018-02-10T07:03:52.270Z,923.81
2018-02-10T07:05:24.087Z,923.84
2018-02-10T07:06:55.905Z,923.81
2018-02-10T07:08:27.722Z,923.79
2018-02-10T07:09:59.540Z,923.75
2018-02-10T07:11:31.458Z,923.74
2018-02-10T07:13:03.175Z,923.69
2018-02-10T07:14:34.992Z,923.73
2018-02-10T07:16:06.810Z,923.77
2018-02-10T07:17:38.627Z,923.73
2018-02-10T07:19:10.445Z,923.80
2018-02-10T07:20:42.262Z,923.76
2018-02-10T07:22:14.080Z,923.74
2018-02-10T07:23:45.897Z,923.73
2018-02-10T07:25:17.714Z,923.72
2018-02-10T07:26:49.532Z,923.80
2018-02-10T07:28:21.350Z,923.79
2018-02-10T07:29:53.369Z,923.83
2018-02-10T07:31:24.989Z,923.86
2018-02-10T07:32:56.801Z,923.91
2018-02-10T07:34:28.619Z,923.90
2018-02-10T07:36:00.436Z,923.90
2018-02-10T07:37:32.254Z,923.89
2018-02-10T07:39:04.072Z,923.82
2018-02-10T07:40:35.889Z,923.87
2018-02-10T07:42:07.858Z,923.80
2018-02-10T07:43:39.524Z,923.85
2018-02-10T07:45:11.341Z,923.83
2018-02-10T07:46:43.158Z,923.90
2018-02-10T07:48:15.076Z,923.89
2018-02-10T07:49:46.794Z,923.89
2018-02-10T07:51:18.610Z,923.90
2018-02-10T07:52:50.447Z,923.98
2018-02-10T07:54:22.245Z,923.97
2018-02-10T07:55:54.063Z,923.99
2018-02-10T07:57:25.881Z,924.04
2018-02-10T07:58:57.698Z,924.04
2018-02-10T08:00:29.616Z,924.07
2018-02-10T08:02:01.334Z,924.11
2018-02-10T08:03:33.151Z,924.15
2018-02-10T08:05:04.971Z,924.16
2018-02-10T08:06:36.886Z,924.18
2018-02-10T08:08:08.604Z,924.22
2018-02-10T08:09:40.425Z,924.20
2018-02-10T08:11:12.239Z,924.17
2018-02-10T08:12:44.057Z,924.15
2018-02-10T08:14:15.875Z,924.15
2018-02-10T08:15:47.693Z,924.12
2018-02-10T08:17:19.510Z,924.15
2018-02-10T08:18:51.329Z,924.13
2018-02-10T08:20:23.162Z,924.13
2018-02-10T08:21:54.962Z,924.20
2018-02-10T08:23:26.780Z,924.23
2018-02-10T08:24:58.797Z,924.33
2018-02-10T08:26:30.415Z,924.34
2018-02-10T08:28:02.232Z,924.30
2018-02-10T08:29:34.050Z,924.38
2018-02-10T08:31:06.118Z,924.40
2018-02-10T08:32:37.684Z,924.36
2018-02-10T08:34:09.504Z,924.36
2018-02-10T08:35:41.318Z,924.34
2018-02-10T08:37:13.140Z,924.31
2018-02-10T08:38:44.959Z,924.29
2018-02-10T08:40:16.771Z,924.29
2018-02-10T08:41:48.588Z,924.33
2018-02-10T08:43:20.506Z,924.32
2018-02-10T08:44:52.223Z,924.34
2018-02-10T08:46:24.041Z,924.33
2018-02-10T08:47:55.858Z,924.35
2018-02-10T08:49:27.675Z,924.37
2018-02-10T08:50:59.492Z,924.36
2018-02-10T08:52:31.310Z,924.38
2018-02-10T08:54:03.128Z,924.42
2018-02-10T08:55:34.944Z,924.43
2018-02-10T08:57:06.762Z,924.45
2018-02-10T08:58:38.579Z,924.46
2018-02-10T09:00:10.396Z,924.45
2018-02-10T09:01:42.564Z,924.46
2018-02-10T09:03:14.030Z,924.49
2018-02-10T09:04:45.848Z,924.52
2018-02-10T09:06:17.665Z,924.53
2018-02-10T09:07:49.583Z,924.57
2018-02-10T09:09:21.300Z,924.57
2018-02-10T09:10:53.118Z,924.58
2018-02-10T09:12:24.937Z,924.63
2018-02-10T09:13:56.755Z,924.62
2018-02-10T09:15:28.570Z,924.66
2018-02-10T09:17:00.388Z,924.69
2018-02-10T09:18:32.205Z,924.74
2018-02-10T09:20:04.274Z,924.70
2018-02-10T09:21:35.841Z,924.72
2018-02-10T09:23:07.658Z,924.75
2018-02-10T09:24:39.475Z,924.72
2018-02-10T09:26:11.294Z,924.75
2018-02-10T09:27:43.111Z,924.74
2018-02-10T09:29:14.929Z,924.74
2018-02-10T09:30:46.748Z,924.77
2018-02-10T09:32:18.816Z,924.79
2018-02-10T09:33:50.384Z,924.76
2018-02-10T09:35:22.203Z,924.79
2018-02-10T09:36:54.027Z,924.83
2018-02-10T09:38:26.090Z,924.86
2018-02-10T09:39:57.681Z,924.88
2018-02-10T09:41:29.477Z,924.86
2018-02-10T09:43:01.296Z,924.79
2018-02-10T09:44:33.115Z,924.76
2018-02-10T09:46:04.934Z,924.77
2018-02-10T09:47:36.752Z,924.76
2018-02-10T09:49:08.571Z,924.77
2018-02-10T09:50:40.392Z,924.79
2018-02-10T09:52:12.235Z,924.83
2018-02-10T09:53:44.027Z,924.87
2018-02-10T09:55:15.847Z,924.88
2018-02-10T09:56:47.866Z,924.88
2018-02-10T09:58:19.484Z,924.95
2018-02-10T09:59:51.309Z,924.98
2018-02-10T10:01:23.124Z,925.01
2018-02-10T10:02:55.193Z,925.07
2018-02-10T10:04:26.761Z,925.09
2018-02-10T10:05:58.581Z,925.09
2018-02-10T10:07:30.400Z,925.13
2018-02-10T10:09:02.219Z,925.14
2018-02-10T10:10:34.040Z,925.10
2018-02-10T10:12:05.872Z,925.11
2018-02-10T10:13:37.679Z,925.11
2018-02-10T10:15:09.598Z,925.14
2018-02-10T10:16:41.318Z,925.12
2018-02-10T10:18:13.137Z,925.17
2018-02-10T10:19:44.959Z,925.16
2018-02-10T10:21:16.778Z,925.19
2018-02-10T10:22:48.598Z,925.17
2018-02-10T10:24:20.418Z,925.17
2018-02-10T10:25:52.238Z,925.15
2018-02-10T10:27:24.159Z,925.23
2018-02-10T10:28:55.880Z,925.24
2018-02-10T10:30:27.701Z,925.26
2018-02-10T10:31:59.522Z,925.25
2018-02-10T10:33:31.444Z,925.25
2018-02-10T10:35:03.182Z,925.24
2018-02-10T10:36:34.987Z,925.23
2018-02-10T10:38:06.809Z,925.21
2018-02-10T10:39:38.630Z,925.26
2018-02-10T10:41:10.451Z,925.28
2018-02-10T10:42:42.275Z,925.25
2018-02-10T10:44:14.094Z,925.27
2018-02-10T10:45:46.066Z,925.25
2018-02-10T10:47:17.737Z,925.27
2018-02-10T10:48:49.560Z,925.25
2018-02-10T10:50:21.409Z,925.26
2018-02-10T10:51:53.303Z,925.30
2018-02-10T10:53:25.028Z,925.22
2018-02-10T10:54:56.848Z,925.29
2018-02-10T10:56:28.670Z,925.31
2018-02-10T10:58:00.493Z,925.34
2018-02-10T10:59:32.316Z,925.38
2018-02-10T11:01:04.140Z,925.39
2018-02-10T11:02:35.963Z,925.43
2018-02-10T11:04:07.885Z,925.49
2018-02-10T11:05:39.608Z,925.50
2018-02-10T11:07:11.432Z,925.55
2018-02-10T11:08:43.254Z,925.63
2018-02-10T11:10:15.179Z,925.70
2018-02-10T11:11:46.901Z,925.72
2018-02-10T11:13:18.723Z,925.76
2018-02-10T11:14:50.548Z,925.84
2018-02-10T11:16:22.371Z,925.81
2018-02-10T11:17:54.195Z,925.84
2018-02-10T11:19:26.021Z,925.86
2018-02-10T11:20:57.844Z,925.85
2018-02-10T11:22:29.720Z,925.87
2018-02-10T11:24:01.494Z,925.89
2018-02-10T11:25:33.319Z,925.81
2018-02-10T11:27:05.143Z,925.87
2018-02-10T11:28:37.069Z,925.84
2018-02-10T11:30:08.794Z,925.87
2018-02-10T11:31:40.620Z,925.85
2018-02-10T11:33:12.444Z,925.90
2018-02-10T11:34:44.519Z,925.97
2018-02-10T11:36:16.093Z,925.92
2018-02-10T11:37:47.918Z,925.91
2018-02-10T11:39:19.742Z,925.96
2018-02-10T11:40:51.567Z,925.97
2018-02-10T11:42:23.391Z,925.99
2018-02-10T11:43:55.215Z,926.09
2018-02-10T11:45:27.040Z,926.11
2018-02-10T11:46:59.165Z,926.14
2018-02-10T11:48:30.688Z,926.13
2018-02-10T11:50:02.512Z,926.17
2018-02-10T11:51:34.338Z,926.13
2018-02-10T11:53:06.161Z,926.17
2018-02-10T11:54:37.986Z,926.13
2018-02-10T11:56:09.809Z,926.11
2018-02-10T11:57:41.634Z,926.07
2018-02-10T11:59:13.560Z,926.03
2018-02-10T12:00:45.282Z,926.11
2018-02-10T12:02:17.107Z,926.14
2018-02-10T12:03:48.932Z,926.12
2018-02-10T12:05:21.107Z,926.14
2018-02-10T12:06:52.595Z,926.16
2018-02-10T12:08:24.405Z,926.17
2018-02-10T12:09:56.229Z,926.32
2018-02-10T12:11:28.054Z,926.36
2018-02-10T12:12:59.907Z,926.47
2018-02-10T12:14:31.703Z,926.50
2018-02-10T12:16:03.531Z,926.59
2018-02-10T12:17:35.355Z,926.62
2018-02-10T12:19:07.176Z,926.66
2018-02-10T12:20:39.002Z,926.68
2018-02-10T12:22:10.826Z,926.68
2018-02-10T12:23:42.751Z,926.67
2018-02-10T12:25:14.524Z,926.74
2018-02-10T12:26:46.301Z,926.72
2018-02-10T12:28:18.127Z,926.68
2018-02-10T12:29:50.054Z,926.65
2018-02-10T12:31:21.778Z,926.58
2018-02-10T12:32:53.609Z,926.52
2018-02-10T12:34:25.431Z,926.54
2018-02-10T12:35:57.504Z,926.45
2018-02-10T12:37:29.079Z,926.52
2018-02-10T12:39:00.905Z,926.45
2018-02-10T12:40:32.731Z,926.34
2018-02-10T12:42:04.656Z,926.32
2018-02-10T12:43:36.383Z,926.15
2018-02-10T12:45:08.267Z,926.08
2018-02-10T12:46:40.040Z,926.03
2018-02-10T12:48:11.861Z,926.05
2018-02-10T12:49:43.688Z,926.00
2018-02-10T12:51:15.515Z,926.00
2018-02-10T12:52:47.342Z,926.04
2018-02-10T12:54:19.169Z,926.00
2018-02-10T12:55:50.996Z,926.04
2018-02-10T12:57:22.829Z,926.14
2018-02-10T12:58:54.649Z,926.17
2018-02-10T13:00:26.576Z,926.16
2018-02-10T13:01:58.304Z,926.09
2018-02-10T13:03:30.130Z,926.03
2018-02-10T13:05:01.957Z,926.09
2018-02-10T13:06:34.037Z,926.10
2018-02-10T13:08:05.611Z,925.96
2018-02-10T13:09:37.438Z,925.93
2018-02-10T13:11:09.265Z,925.88
2018-02-10T13:12:41.092Z,926.11
2018-02-10T13:14:12.930Z,926.07
2018-02-10T13:15:44.746Z,926.23
2018-02-10T13:17:16.573Z,926.00
2018-02-10T13:18:48.751Z,926.19
2018-02-10T13:20:20.227Z,926.17
2018-02-10T13:21:52.055Z,926.09
2018-02-10T13:23:23.882Z,926.09
2018-02-10T13:24:55.708Z,926.07
2018-02-10T13:26:27.536Z,926.24
2018-02-10T13:27:59.364Z,925.98
2018-02-10T13:29:31.207Z,926.04
2018-02-10T13:31:03.018Z,926.00
2018-02-10T13:32:34.861Z,925.91
2018-02-10T13:34:06.673Z,926.05
2018-02-10T13:35:38.503Z,926.08
2018-02-10T13:37:10.680Z,925.98
2018-02-10T13:38:42.157Z,925.91
2018-02-10T13:40:13.985Z,926.02
2018-02-10T13:41:45.813Z,926.22
2018-02-10T13:43:17.642Z,925.90
2018-02-10T13:44:49.470Z,925.89
2018-02-10T13:46:21.298Z,925.98
2018-02-10T13:47:53.127Z,925.99
2018-02-10T13:49:24.953Z,925.96
2018-02-10T13:50:56.781Z,925.86
2018-02-10T13:52:28.609Z,926.05
2018-02-10T13:54:00.441Z,925.93
2018-02-10T13:55:32.364Z,925.75
2018-02-10T13:57:04.091Z,925.96
2018-02-10T13:58:35.918Z,925.81
2018-02-10T14:00:07.746Z,925.73
2018-02-10T14:01:39.673Z,925.87
2018-02-10T14:03:11.400Z,925.68
2018-02-10T14:04:43.228Z,925.79
2018-02-10T14:06:15.056Z,925.74
2018-02-10T14:07:46.884Z,925.69
2018-02-10T14:09:18.711Z,925.80
2018-02-10T14:10:50.540Z,925.79
2018-02-10T14:12:22.367Z,925.70
2018-02-10T14:13:54.332Z,925.81
2018-02-10T14:15:26.024Z,925.80
2018-02-10T14:16:57.852Z,925.73
2018-02-10T14:18:29.680Z,925.77
2018-02-10T14:20:01.509Z,925.69
2018-02-10T14:21:33.338Z,925.91
2018-02-10T14:23:05.168Z,925.76
2018-02-10T14:24:36.996Z,925.64
2018-02-10T14:26:08.826Z,925.52
2018-02-10T14:27:40.655Z,925.49
2018-02-10T14:29:12.484Z,925.56
2018-02-10T14:30:44.313Z,925.49
2018-02-10T14:32:16.342Z,925.45
2018-02-10T14:33:47.972Z,925.59
2018-02-10T14:35:19.796Z,925.59
2018-02-10T14:36:51.624Z,925.59
2018-02-10T14:38:23.701Z,925.74
2018-02-10T14:39:55.279Z,925.52
2018-02-10T14:41:27.106Z,925.57
2018-02-10T14:42:58.934Z,925.53
2018-02-10T14:44:30.762Z,925.52
2018-02-10T14:46:02.591Z,925.67
2018-02-10T14:47:34.420Z,925.71
2018-02-10T14:49:06.248Z,925.75
2018-02-10T14:50:38.378Z,925.73
2018-02-10T14:52:14.758Z,925.71
2018-02-10T14:53:46.644Z,925.72
2018-02-10T14:55:13.566Z,925.91
2018-02-10T14:56:45.396Z,925.97
2018-02-10T14:58:17.226Z,925.83
2018-02-10T14:59:49.058Z,925.64
2018-02-10T15:01:20.886Z,925.46
2018-02-10T15:02:52.716Z,925.45
2018-02-10T15:04:24.546Z,925.53
2018-02-10T15:05:56.376Z,925.73
2018-02-10T15:07:28.206Z,925.59
2018-02-10T15:09:00.387Z,925.47
2018-02-10T15:10:31.865Z,925.36
2018-02-10T15:12:03.694Z,925.34
2018-02-10T15:13:35.522Z,925.51
2018-02-10T15:15:07.450Z,925.38
2018-02-10T15:16:39.178Z,925.41
2018-02-10T15:18:11.006Z,925.41
2018-02-10T15:19:42.834Z,925.40
2018-02-10T15:21:14.661Z,925.36
2018-02-10T15:22:46.492Z,925.37
2018-02-10T15:24:18.315Z,925.39
2018-02-10T15:25:50.143Z,925.45
2018-02-10T15:27:22.072Z,925.26
2018-02-10T15:28:53.801Z,925.27
2018-02-10T15:30:25.631Z,925.33
2018-02-10T15:31:57.476Z,925.30
2018-02-10T15:33:29.387Z,925.40
2018-02-10T15:35:01.116Z,925.35
2018-02-10T15:36:32.945Z,925.28
2018-02-10T15:38:04.774Z,925.35
2018-02-10T15:39:36.854Z,925.32
2018-02-10T15:41:08.433Z,925.32
2018-02-10T15:42:40.263Z,925.22
2018-02-10T15:44:12.091Z,925.40
2018-02-10T15:45:44.027Z,925.40
2018-02-10T15:47:15.748Z,925.25
2018-02-10T15:48:47.577Z,925.13
2018-02-10T15:50:19.408Z,925.04
2018-02-10T15:51:51.381Z,925.16
2018-02-10T15:53:23.058Z,925.37
2018-02-10T15:54:54.885Z,925.17
2018-02-10T15:56:26.711Z,925.37
2018-02-10T15:57:58.539Z,925.25
2018-02-10T15:59:30.367Z,925.48
2018-02-10T16:01:02.194Z,925.72
2018-02-10T16:02:34.023Z,925.44
2018-02-10T16:04:06.051Z,925.26
2018-02-10T16:05:37.678Z,925.17
2018-02-10T16:07:09.507Z,925.07
2018-02-10T16:08:41.335Z,925.00
2018-02-10T16:10:13.415Z,925.04
2018-02-10T16:11:44.994Z,924.92
2018-02-10T16:13:16.823Z,924.96
2018-02-10T16:14:48.655Z,924.84
2018-02-10T16:16:20.480Z,924.93
2018-02-10T16:17:52.309Z,924.89
2018-02-10T16:19:24.138Z,924.91
2018-02-10T16:20:55.969Z,924.81
2018-02-10T16:22:27.896Z,924.58
2018-02-10T16:23:59.625Z,924.71
2018-02-10T16:25:31.456Z,924.68
2018-02-10T16:27:03.284Z,924.58
2018-02-10T16:28:35.114Z,924.65
2018-02-10T16:30:06.945Z,924.64
2018-02-10T16:31:38.775Z,924.61
2018-02-10T16:33:10.605Z,924.64
2018-02-10T16:34:42.435Z,924.51
2018-02-10T16:36:14.266Z,924.65
2018-02-10T16:37:46.097Z,924.49
2018-02-10T16:39:17.928Z,924.50
2018-02-10T16:40:50.009Z,924.65
2018-02-10T16:42:21.590Z,924.58
2018-02-10T16:43:53.419Z,924.65
2018-02-10T16:45:25.250Z,924.80
2018-02-10T16:46:57.082Z,924.67
2018-02-10T16:48:28.911Z,924.87
2018-02-10T16:50:00.741Z,924.84
2018-02-10T16:51:32.569Z,924.78
2018-02-10T16:53:04.398Z,924.78
2018-02-10T16:54:36.227Z,924.74
2018-02-10T16:56:08.059Z,925.09
2018-02-10T16:57:39.885Z,925.35
2018-02-10T16:59:11.811Z,925.12
2018-02-10T17:00:43.539Z,925.41
2018-02-10T17:02:15.368Z,925.24
2018-02-10T17:03:47.196Z,925.06
2018-02-10T17:05:19.024Z,925.04
2018-02-10T17:06:50.852Z,924.93
2018-02-10T17:08:22.684Z,925.06
2018-02-10T17:09:54.509Z,925.08
2018-02-10T17:11:26.438Z,925.05
2018-02-10T17:12:58.165Z,925.08
2018-02-10T17:14:29.994Z,925.00
2018-02-10T17:16:01.823Z,925.16
2018-02-10T17:17:33.751Z,925.02
2018-02-10T17:19:05.481Z,925.47
2018-02-10T17:20:37.308Z,924.81
2018-02-10T17:22:09.139Z,925.06
2018-02-10T17:23:40.966Z,925.03
2018-02-10T17:25:12.794Z,924.97
2018-02-10T17:26:44.622Z,924.93
2018-02-10T17:28:16.451Z,924.79
2018-02-10T17:29:48.278Z,924.91
2018-02-10T17:31:20.107Z,924.94
2018-02-10T17:32:51.937Z,924.84
2018-02-10T17:34:23.766Z,924.91
2018-02-10T17:35:55.846Z,925.05
2018-02-10T17:37:27.424Z,925.04
2018-02-10T17:38:59.253Z,925.15
2018-02-10T17:40:31.082Z,925.09
2018-02-10T17:42:02.911Z,925.38
2018-02-10T17:43:34.739Z,925.09
2018-02-10T17:45:06.569Z,925.10
2018-02-10T17:46:38.396Z,924.76
2018-02-10T17:48:10.324Z,924.57
2018-02-10T17:49:42.051Z,924.71
2018-02-10T17:51:13.878Z,924.87
2018-02-10T17:52:45.704Z,924.84
2018-02-10T17:54:17.831Z,924.91
2018-02-10T17:55:49.357Z,924.95
2018-02-10T17:57:21.183Z,924.88
2018-02-10T17:58:53.008Z,924.83
2018-02-10T18:00:24.834Z,924.85
2018-02-10T18:01:56.659Z,925.08
2018-02-10T18:03:28.484Z,924.88
2018-02-10T18:05:00.309Z,924.95
2018-02-10T18:06:32.233Z,924.98
2018-02-10T18:08:03.958Z,924.70
2018-02-10T18:09:35.782Z,924.82
2018-02-10T18:11:07.605Z,924.95
2018-02-10T18:12:39.529Z,924.85
2018-02-10T18:14:11.254Z,925.18
2018-02-10T18:15:43.074Z,925.11
2018-02-10T18:17:14.896Z,925.44
2018-02-10T18:18:46.720Z,925.37
2018-02-10T18:20:18.537Z,925.27
2018-02-10T18:21:50.358Z,925.37
2018-02-10T18:23:22.177Z,925.57
2018-02-10T18:24:53.996Z,925.59
2018-02-10T18:26:25.817Z,925.62
2018-02-10T18:27:57.633Z,925.60
2018-02-10T18:29:29.450Z,925.55
2018-02-10T18:31:01.369Z,925.52
2018-02-10T18:32:33.086Z,925.55
2018-02-10T18:34:04.903Z,925.54
2018-02-10T18:35:36.720Z,925.44
2018-02-10T18:37:08.540Z,925.38
2018-02-10T18:38:40.356Z,925.35
2018-02-10T18:40:12.172Z,925.23
2018-02-10T18:41:43.989Z,925.18
2018-02-10T18:43:15.807Z,925.15
2018-02-10T18:44:47.624Z,925.04
2018-02-10T18:46:19.443Z,925.02
2018-02-10T18:47:51.261Z,924.87
2018-02-10T18:49:23.179Z,924.82
2018-02-10T18:50:54.896Z,924.70
2018-02-10T18:52:26.714Z,924.62
2018-02-10T18:53:58.533Z,924.58
2018-02-10T18:55:30.350Z,924.58
2018-02-10T18:57:02.170Z,924.62
2018-02-10T18:58:33.987Z,924.63
2018-02-10T19:00:05.804Z,924.60
2018-02-10T19:01:37.623Z,924.67
2018-02-10T19:03:09.441Z,924.73
2018-02-10T19:04:41.259Z,924.85
2018-02-10T19:06:13.077Z,924.89